createdAt,value
2022-11-27T00:00:14.038Z,11.73
2022-11-27T00:04:21.790Z,10.95
2022-11-27T00:08:25.157Z,10.25
2022-11-27T00:12:26.674Z,10.57
2022-11-27T00:16:28.578Z,12.02
2022-11-27T00:20:30.201Z,11.45
2022-11-27T00:24:31.658Z,11.60
2022-11-27T00:28:33.974Z,11.05
2022-11-27T00:32:35.457Z,10.40
2022-11-27T00:36:37.811Z,11.60
2022-11-27T00:40:39.236Z,11.15
2022-11-27T00:44:40.867Z,11.35
2022-11-27T00:48:43.226Z,13.10
2022-11-27T00:52:44.724Z,12.48
2022-11-27T00:56:46.183Z,13.40
2022-11-27T01:00:54.876Z,12.02
2022-11-27T01:04:56.425Z,12.68
2022-11-27T01:08:59.191Z,12.35
2022-11-27T01:13:00.683Z,12.40
2022-11-27T01:17:02.290Z,11.85
2022-11-27T01:21:04.424Z,12.82
2022-11-27T01:25:06.482Z,12.63
2022-11-27T01:29:08.110Z,11.90
2022-11-27T01:33:09.519Z,12.25
2022-11-27T01:37:10.944Z,15.88
2022-11-27T01:41:27.602Z,15.88
2022-11-27T01:45:29.175Z,12.95
2022-11-27T01:49:52.779Z,12.30
2022-11-27T01:53:54.720Z,12.75
2022-11-27T01:58:05.382Z,13.85
2022-11-27T02:02:07.103Z,13.70
2022-11-27T02:06:12.862Z,12.20
2022-11-27T02:10:16.131Z,13.98
2022-11-27T02:14:29.840Z,13.15
2022-11-27T02:18:43.409Z,13.10
2022-11-27T02:23:29.608Z,13.05
2022-11-27T02:28:05.111Z,13.60
2022-11-27T02:32:16.830Z,12.73
2022-11-27T02:36:23.380Z,13.25
2022-11-27T02:40:36.087Z,13.98
2022-11-27T02:44:44.470Z,13.55
2022-11-27T02:48:53.193Z,12.38
2022-11-27T02:53:00.185Z,13.30
2022-11-27T02:57:04.900Z,13.73
2022-11-27T03:01:08.302Z,14.13
2022-11-27T03:05:14.545Z,15.55
2022-11-27T03:09:25.106Z,15.23
2022-11-27T03:13:27.756Z,11.10
2022-11-27T03:17:41.149Z,14.30
2022-11-27T03:21:47.646Z,14.10
2022-11-27T03:25:49.219Z,14.32
2022-11-27T03:29:58.080Z,14.48
2022-11-27T03:33:59.597Z,14.52
2022-11-27T03:38:01.103Z,13.88
2022-11-27T03:42:08.601Z,15.82
2022-11-27T03:46:23.687Z,13.63
2022-11-27T03:50:46.766Z,13.95
2022-11-27T03:55:01.292Z,12.48
2022-11-27T03:59:25.360Z,13.65
2022-11-27T04:03:29.071Z,13.55
2022-11-27T04:07:30.679Z,14.68
2022-11-27T04:11:32.286Z,13.55
2022-11-27T04:15:33.699Z,11.88
2022-11-27T04:19:35.228Z,12.60
2022-11-27T04:23:38.433Z,12.10
2022-11-27T04:27:39.951Z,12.85
2022-11-27T04:31:41.460Z,11.60
2022-11-27T04:35:43.362Z,13.63
2022-11-27T04:39:44.792Z,12.88
2022-11-27T04:43:46.221Z,12.63
2022-11-27T04:47:47.941Z,13.13
2022-11-27T04:51:49.427Z,12.65
2022-11-27T04:55:52.309Z,13.07
2022-11-27T04:59:53.783Z,13.05
2022-11-27T05:03:55.228Z,11.77
2022-11-27T05:07:56.756Z,11.88
2022-11-27T05:11:58.294Z,11.50
2022-11-27T05:16:00.069Z,11.65
2022-11-27T05:20:01.549Z,11.85
2022-11-27T05:24:03.182Z,10.70
2022-11-27T05:28:04.979Z,12.05
2022-11-27T05:32:06.469Z,12.15
2022-11-27T05:36:08.260Z,12.05
2022-11-27T05:40:10.132Z,11.63
2022-11-27T05:44:15.249Z,11.20
2022-11-27T05:48:19.446Z,12.48
2022-11-27T05:52:20.951Z,12.82
2022-11-27T05:56:22.432Z,10.52
2022-11-27T06:00:24.651Z,12.63
2022-11-27T06:04:31.792Z,12.23
2022-11-27T06:08:33.306Z,11.65
2022-11-27T06:12:34.749Z,12.65
2022-11-27T06:16:39.463Z,11.57
2022-11-27T06:20:44.638Z,13.07
2022-11-27T06:24:49.552Z,12.68
2022-11-27T06:28:51.367Z,12.43
2022-11-27T06:32:52.853Z,12.13
2022-11-27T06:37:00.978Z,12.70
2022-11-27T06:41:12.494Z,13.30
2022-11-27T06:45:14.060Z,12.75
2022-11-27T06:49:17.811Z,14.07
2022-11-27T06:53:22.266Z,14.70
2022-11-27T06:57:23.769Z,14.30
2022-11-27T07:01:30.059Z,12.98
2022-11-27T07:05:31.668Z,12.40
2022-11-27T07:09:33.124Z,13.40
2022-11-27T07:13:35.213Z,12.05
2022-11-27T07:17:37.961Z,12.80
2022-11-27T07:21:39.632Z,12.35
2022-11-27T07:25:41.092Z,12.23
2022-11-27T07:29:44.702Z,12.88
2022-11-27T07:33:46.185Z,12.05
2022-11-27T07:37:47.709Z,12.27
2022-11-27T07:41:49.157Z,13.43
2022-11-27T07:45:53.212Z,12.10
2022-11-27T07:49:55.202Z,13.15
2022-11-27T07:53:57.102Z,11.73
2022-11-27T07:57:58.566Z,12.68
2022-11-27T08:02:00.019Z,12.02
2022-11-27T08:06:05.077Z,11.65
2022-11-27T08:10:07.854Z,11.65
2022-11-27T08:14:09.712Z,12.68
2022-11-27T08:18:11.158Z,13.13
2022-11-27T08:22:14.448Z,12.63
2022-11-27T08:26:16.389Z,13.18
2022-11-27T08:30:17.997Z,12.43
2022-11-27T08:34:19.466Z,11.65
2022-11-27T08:38:21.797Z,11.68
2022-11-27T08:42:23.476Z,12.38
2022-11-27T08:46:24.993Z,5.40
2022-11-27T08:50:26.439Z,10.68
2022-11-27T08:54:27.941Z,10.10
2022-11-27T08:58:29.405Z,12.15
2022-11-27T09:02:30.853Z,11.00
2022-11-27T09:06:34.763Z,9.52
2022-11-27T09:10:36.885Z,9.90
2022-11-27T09:14:40.067Z,10.63
2022-11-27T09:18:44.492Z,8.65
2022-11-27T09:22:45.993Z,8.77
2022-11-27T09:26:47.496Z,8.35
2022-11-27T09:30:49.076Z,8.40
2022-11-27T09:34:53.461Z,8.55
2022-11-27T09:38:57.456Z,8.68
2022-11-27T09:43:09.855Z,8.50
2022-11-27T09:47:28.247Z,7.50
2022-11-27T09:51:44.086Z,8.32
2022-11-27T09:55:51.604Z,7.53
2022-11-27T09:59:55.015Z,8.43
2022-11-27T10:03:56.810Z,11.10
2022-11-27T10:08:23.720Z,8.70
2022-11-27T10:12:25.151Z,8.15
2022-11-27T10:16:42.931Z,7.82
2022-11-27T10:20:52.398Z,8.18
2022-11-27T10:25:08.056Z,6.65
2022-11-27T10:29:36.109Z,7.70
2022-11-27T10:33:53.694Z,7.68
2022-11-27T10:38:11.369Z,8.07
2022-11-27T10:42:22.299Z,7.88
2022-11-27T10:46:37.032Z,6.90
2022-11-27T10:50:39.693Z,7.82
2022-11-27T10:54:42.896Z,5.43
2022-11-27T10:59:04.850Z,7.72
2022-11-27T11:03:07.190Z,7.47
2022-11-27T11:07:29.360Z,6.88
2022-11-27T11:11:30.857Z,6.55
2022-11-27T11:15:33.214Z,7.75
2022-11-27T11:19:37.687Z,7.72
2022-11-27T11:23:40.935Z,6.97
2022-11-27T11:27:43.886Z,6.93
2022-11-27T11:31:45.512Z,7.40
2022-11-27T11:35:55.649Z,7.50
2022-11-27T11:40:13.170Z,8.00
2022-11-27T11:44:25.735Z,7.90
2022-11-27T11:48:28.128Z,7.18
2022-11-27T11:52:41.673Z,6.68
2022-11-27T11:56:49.509Z,7.15
2022-11-27T12:01:28.511Z,6.25
2022-11-27T12:05:57.228Z,6.97
2022-11-27T12:10:05.278Z,7.05
2022-11-27T12:14:27.675Z,6.20
2022-11-27T12:18:48.691Z,6.30
2022-11-27T12:23:11.792Z,10.30
2022-11-27T12:27:39.600Z,5.57
2022-11-27T12:32:13.265Z,6.45
2022-11-27T12:36:20.905Z,5.75
2022-11-27T12:40:28.222Z,5.55
2022-11-27T12:44:54.593Z,5.93
2022-11-27T12:49:01.434Z,6.13
2022-11-27T12:53:15.993Z,6.63
2022-11-27T12:57:27.323Z,6.28
2022-11-27T13:01:36.346Z,6.05
2022-11-27T13:05:55.038Z,5.97
2022-11-27T13:10:25.662Z,6.15
2022-11-27T13:14:28.353Z,6.82
2022-11-27T13:18:37.257Z,6.18
2022-11-27T13:22:39.167Z,5.30
2022-11-27T13:26:44.090Z,5.45
2022-11-27T13:30:47.320Z,5.82
2022-11-27T13:34:50.751Z,6.53
2022-11-27T13:38:56.437Z,5.47
2022-11-27T13:43:05.292Z,6.35
2022-11-27T13:47:12.120Z,5.90
2022-11-27T13:51:26.676Z,6.13
2022-11-27T13:55:31.271Z,5.05
2022-11-27T13:59:36.443Z,6.38
2022-11-27T14:03:40.723Z,6.38
2022-11-27T14:08:00.411Z,5.88
2022-11-27T14:12:13.418Z,6.63
2022-11-27T14:16:35.764Z,6.18
2022-11-27T14:20:47.790Z,6.50
2022-11-27T14:24:55.807Z,5.53
2022-11-27T14:28:59.780Z,5.43
2022-11-27T14:33:05.168Z,5.95
2022-11-27T14:37:06.745Z,6.30
2022-11-27T14:41:15.639Z,6.63
2022-11-27T14:45:20.496Z,6.00
2022-11-27T14:49:24.867Z,5.53
2022-11-27T14:53:27.638Z,5.55
2022-11-27T14:57:30.445Z,5.88
2022-11-27T15:01:34.523Z,6.40
2022-11-27T15:05:38.371Z,7.15
2022-11-27T15:09:44.870Z,5.63
2022-11-27T15:13:55.001Z,5.70
2022-11-27T15:22:00.247Z,5.07
2022-11-27T15:26:01.866Z,5.30
2022-11-27T15:30:12.049Z,5.60
2022-11-27T15:34:13.518Z,5.63
2022-11-27T15:38:18.141Z,4.85
2022-11-27T15:42:20.819Z,5.68
2022-11-27T15:46:30.072Z,5.57
2022-11-27T15:50:31.918Z,5.40
2022-11-27T15:54:33.348Z,4.97
2022-11-27T15:58:34.808Z,6.20
2022-11-27T16:02:37.703Z,5.70
2022-11-27T16:06:39.253Z,6.03
2022-11-27T16:10:41.429Z,5.22
2022-11-27T16:14:43.042Z,5.78
2022-11-27T16:18:44.850Z,6.47
2022-11-27T16:22:46.333Z,6.65
2022-11-27T16:26:47.991Z,6.78
2022-11-27T16:30:49.505Z,6.32
2022-11-27T16:34:51.156Z,7.63
2022-11-27T16:38:54.507Z,7.43
2022-11-27T16:42:56.009Z,6.93
2022-11-27T16:46:57.519Z,8.00
2022-11-27T16:51:10.099Z,7.22
2022-11-27T16:55:11.641Z,6.68
2022-11-27T16:59:14.925Z,7.50
2022-11-27T17:03:19.737Z,7.57
2022-11-27T17:07:30.227Z,6.80
2022-11-27T17:11:33.877Z,7.32
2022-11-27T17:15:40.357Z,6.82
2022-11-27T17:19:42.612Z,7.15
2022-11-27T17:23:46.785Z,6.60
2022-11-27T17:27:49.038Z,7.72
2022-11-27T17:31:50.721Z,7.35
2022-11-27T17:35:52.371Z,7.70
2022-11-27T17:39:57.104Z,7.18
2022-11-27T17:44:01.452Z,8.85
2022-11-27T17:48:02.983Z,9.02
2022-11-27T17:52:18.833Z,7.20
2022-11-27T17:56:38.139Z,8.27
2022-11-27T18:00:44.394Z,7.40
2022-11-27T18:04:46.132Z,7.82
2022-11-27T18:08:47.845Z,7.75
2022-11-27T18:12:49.315Z,8.02
2022-11-27T18:16:53.677Z,6.78
2022-11-27T18:20:55.571Z,8.00
2022-11-27T18:25:03.685Z,7.05
2022-11-27T18:29:23.998Z,7.25
2022-11-27T18:37:40.885Z,8.05
2022-11-27T18:41:48.593Z,7.45
2022-11-27T18:45:50.253Z,6.95
2022-11-27T18:49:51.902Z,7.82
2022-11-27T18:53:56.630Z,6.85
2022-11-27T18:58:04.265Z,7.15
2022-11-27T19:02:11.915Z,7.43
2022-11-27T19:06:16.732Z,6.88
2022-11-27T19:10:18.506Z,6.85
2022-11-27T19:14:19.988Z,7.50
2022-11-27T19:18:21.482Z,7.53
2022-11-27T19:22:23.084Z,7.38
2022-11-27T19:30:48.516Z,6.72
2022-11-27T19:34:51.165Z,7.68
2022-11-27T19:39:05.008Z,7.78
2022-11-27T19:43:09.335Z,8.05
2022-11-27T19:47:18.964Z,6.30
2022-11-27T19:51:52.289Z,7.28
2022-11-27T19:55:55.633Z,7.78
2022-11-27T20:04:34.277Z,7.53
2022-11-27T20:08:36.195Z,6.57
2022-11-27T20:12:40.978Z,7.95
2022-11-27T20:16:42.496Z,7.57
2022-11-27T20:21:01.664Z,6.90
2022-11-27T20:25:18.869Z,7.68
2022-11-27T20:29:23.749Z,8.98
2022-11-27T20:33:25.887Z,7.70
2022-11-27T20:42:04.369Z,7.95
2022-11-27T20:46:13.163Z,8.10
2022-11-27T20:50:17.630Z,7.53
2022-11-27T20:58:52.615Z,8.00
2022-11-27T21:02:54.280Z,7.57
2022-11-27T21:07:11.543Z,8.48
2022-11-27T21:11:24.919Z,8.85
2022-11-27T21:15:26.548Z,8.15
2022-11-27T21:19:37.175Z,9.65
2022-11-27T21:23:40.527Z,9.73
2022-11-27T21:27:59.216Z,8.57
2022-11-27T21:32:00.843Z,9.00
2022-11-27T21:36:03.236Z,8.23
2022-11-27T21:40:10.308Z,10.15
2022-11-27T21:44:13.224Z,9.95
2022-11-27T21:48:14.715Z,7.82
2022-11-27T21:52:16.349Z,9.82
2022-11-27T21:56:20.268Z,10.18
2022-11-27T22:00:22.208Z,9.40
2022-11-27T22:04:27.201Z,6.93
2022-11-27T22:08:31.362Z,10.25
2022-11-27T22:12:32.836Z,9.35
2022-11-27T22:16:41.327Z,9.02
2022-11-27T22:20:46.116Z,10.60
2022-11-27T22:24:47.530Z,10.50
2022-11-27T22:28:49.582Z,9.73
2022-11-27T22:32:57.428Z,10.35
2022-11-27T22:36:58.851Z,9.35
2022-11-27T22:41:00.248Z,9.27
2022-11-27T22:45:01.822Z,8.93
2022-11-27T22:49:06.252Z,10.25
2022-11-27T22:53:07.679Z,9.40
2022-11-27T22:57:09.140Z,9.68
2022-11-27T23:01:16.408Z,10.13
2022-11-27T23:05:17.819Z,9.95
2022-11-27T23:09:19.386Z,9.52
2022-11-27T23:13:20.904Z,9.70
2022-11-27T23:17:22.468Z,9.20
2022-11-27T23:21:24.541Z,9.43
2022-11-27T23:25:28.178Z,9.75
2022-11-27T23:29:29.628Z,9.52
2022-11-27T23:33:31.075Z,9.95
2022-11-27T23:37:32.570Z,10.38
2022-11-27T23:41:34.157Z,9.50
2022-11-27T23:45:37.913Z,9.23
2022-11-27T23:49:39.336Z,10.05
2022-11-27T23:53:41.612Z,9.63
2022-11-27T23:57:43.096Z,8.98
